sensor_id;sensor_type;location;lat;lon;timestamp;temperature;humidity
72106;SHT30;59975;47.646;18.318;2023-04-01T00:00:15;9.21;91.45
72106;SHT30;59975;47.646;18.318;2023-04-01T00:02:41;9.21;91.59
72106;SHT30;59975;47.646;18.318;2023-04-01T00:05:07;9.19;91.82
72106;SHT30;59975;47.646;18.318;2023-04-01T00:07:32;9.22;91.54
72106;SHT30;59975;47.646;18.318;2023-04-01T00:09:58;9.23;91.27
72106;SHT30;59975;47.646;18.318;2023-04-01T00:12:23;9.18;91.41
72106;SHT30;59975;47.646;18.318;2023-04-01T00:14:51;9.16;91.52
72106;SHT30;59975;47.646;18.318;2023-04-01T00:17:16;9.18;91.42
72106;SHT30;59975;47.646;18.318;2023-04-01T00:19:42;9.22;91.55
72106;SHT30;59975;47.646;18.318;2023-04-01T00:22:07;9.19;91.31
72106;SHT30;59975;47.646;18.318;2023-04-01T00:24:37;9.25;91.16
72106;SHT30;59975;47.646;18.318;2023-04-01T00:27:02;9.21;91.62
72106;SHT30;59975;47.646;18.318;2023-04-01T00:29:28;9.18;91.40
72106;SHT30;59975;47.646;18.318;2023-04-01T00:31:56;9.15;91.12
72106;SHT30;59975;47.646;18.318;2023-04-01T00:34:22;9.12;91.03
72106;SHT30;59975;47.646;18.318;2023-04-01T00:36:49;9.11;91.17
72106;SHT30;59975;47.646;18.318;2023-04-01T00:39:15;9.02;91.32
72106;SHT30;59975;47.646;18.318;2023-04-01T00:41:41;9.05;91.41
72106;SHT30;59975;47.646;18.318;2023-04-01T00:44:20;8.99;91.53
72106;SHT30;59975;47.646;18.318;2023-04-01T00:46:46;8.98;91.52
72106;SHT30;59975;47.646;18.318;2023-04-01T00:49:13;8.98;91.15
72106;SHT30;59975;47.646;18.318;2023-04-01T00:51:40;8.97;91.13
72106;SHT30;59975;47.646;18.318;2023-04-01T00:54:08;8.93;91.06
72106;SHT30;59975;47.646;18.318;2023-04-01T00:56:41;8.97;91.16
72106;SHT30;59975;47.646;18.318;2023-04-01T00:59:13;8.95;91.22
72106;SHT30;59975;47.646;18.318;2023-04-01T01:01:40;8.91;91.28
72106;SHT30;59975;47.646;18.318;2023-04-01T01:04:06;8.93;90.92
72106;SHT30;59975;47.646;18.318;2023-04-01T01:06:47;8.92;90.89
72106;SHT30;59975;47.646;18.318;2023-04-01T01:09:38;8.95;90.69
72106;SHT30;59975;47.646;18.318;2023-04-01T01:12:30;8.92;90.74
72106;SHT30;59975;47.646;18.318;2023-04-01T01:15:49;8.91;90.70
72106;SHT30;59975;47.646;18.318;2023-04-01T01:20:44;8.89;90.55
72106;SHT30;59975;47.646;18.318;2023-04-01T01:23:25;8.88;90.72
72106;SHT30;59975;47.646;18.318;2023-04-01T01:31:54;8.78;91.03
72106;SHT30;59975;47.646;18.318;2023-04-01T01:34:40;8.71;91.10
72106;SHT30;59975;47.646;18.318;2023-04-01T01:37:13;8.68;91.23
72106;SHT30;59975;47.646;18.318;2023-04-01T01:39:42;8.65;91.17
72106;SHT30;59975;47.646;18.318;2023-04-01T01:42:11;8.61;91.26
72106;SHT30;59975;47.646;18.318;2023-04-01T01:44:40;8.57;91.18
72106;SHT30;59975;47.646;18.318;2023-04-01T01:47:07;8.56;91.26
72106;SHT30;59975;47.646;18.318;2023-04-01T01:49:35;8.56;91.30
72106;SHT30;59975;47.646;18.318;2023-04-01T01:52:01;8.51;91.25
72106;SHT30;59975;47.646;18.318;2023-04-01T01:54:27;8.48;91.38
72106;SHT30;59975;47.646;18.318;2023-04-01T01:57:07;8.48;91.50
72106;SHT30;59975;47.646;18.318;2023-04-01T01:59:37;8.48;91.52
72106;SHT30;59975;47.646;18.318;2023-04-01T02:02:04;8.56;91.33
72106;SHT30;59975;47.646;18.318;2023-04-01T02:04:39;8.54;91.58
72106;SHT30;59975;47.646;18.318;2023-04-01T02:07:12;8.60;91.52
72106;SHT30;59975;47.646;18.318;2023-04-01T02:09:39;8.57;91.34
72106;SHT30;59975;47.646;18.318;2023-04-01T02:12:10;8.64;91.30
72106;SHT30;59975;47.646;18.318;2023-04-01T02:14:57;8.63;91.21
72106;SHT30;59975;47.646;18.318;2023-04-01T02:17:27;8.68;91.31
72106;SHT30;59975;47.646;18.318;2023-04-01T02:20:01;8.72;91.27
72106;SHT30;59975;47.646;18.318;2023-04-01T02:22:33;8.69;91.14
72106;SHT30;59975;47.646;18.318;2023-04-01T02:25:06;8.69;90.97
72106;SHT30;59975;47.646;18.318;2023-04-01T02:27:33;8.74;90.92
72106;SHT30;59975;47.646;18.318;2023-04-01T02:29:58;8.71;91.06
72106;SHT30;59975;47.646;18.318;2023-04-01T02:32:25;8.67;90.88
72106;SHT30;59975;47.646;18.318;2023-04-01T02:34:53;8.63;90.91
72106;SHT30;59975;47.646;18.318;2023-04-01T02:37:19;8.56;90.85
72106;SHT30;59975;47.646;18.318;2023-04-01T02:39:45;8.44;91.11
72106;SHT30;59975;47.646;18.318;2023-04-01T02:42:10;8.33;91.52
72106;SHT30;59975;47.646;18.318;2023-04-01T02:44:36;8.17;91.78
72106;SHT30;59975;47.646;18.318;2023-04-01T02:47:02;8.10;91.87
72106;SHT30;59975;47.646;18.318;2023-04-01T02:49:27;8.00;92.22
72106;SHT30;59975;47.646;18.318;2023-04-01T02:51:53;8.00;92.39
72106;SHT30;59975;47.646;18.318;2023-04-01T02:54:19;7.99;92.34
72106;SHT30;59975;47.646;18.318;2023-04-01T02:56:44;7.89;92.44
72106;SHT30;59975;47.646;18.318;2023-04-01T02:59:10;7.85;92.68
72106;SHT30;59975;47.646;18.318;2023-04-01T03:01:36;7.85;92.62
72106;SHT30;59975;47.646;18.318;2023-04-01T03:04:02;7.76;92.76
72106;SHT30;59975;47.646;18.318;2023-04-01T03:06:27;7.72;92.92
72106;SHT30;59975;47.646;18.318;2023-04-01T03:08:53;7.72;92.96
72106;SHT30;59975;47.646;18.318;2023-04-01T03:11:18;7.65;93.11
72106;SHT30;59975;47.646;18.318;2023-04-01T03:13:44;7.65;93.10
72106;SHT30;59975;47.646;18.318;2023-04-01T03:16:09;7.68;93.04
72106;SHT30;59975;47.646;18.318;2023-04-01T03:18:35;7.62;93.01
72106;SHT30;59975;47.646;18.318;2023-04-01T03:21:18;7.68;93.10
72106;SHT30;59975;47.646;18.318;2023-04-01T03:23:45;7.61;93.17
72106;SHT30;59975;47.646;18.318;2023-04-01T03:26:10;7.58;93.25
72106;SHT30;59975;47.646;18.318;2023-04-01T03:28:36;7.55;93.25
72106;SHT30;59975;47.646;18.318;2023-04-01T03:31:02;7.51;93.36
72106;SHT30;59975;47.646;18.318;2023-04-01T03:33:27;7.50;93.46
72106;SHT30;59975;47.646;18.318;2023-04-01T03:35:53;7.51;93.36
72106;SHT30;59975;47.646;18.318;2023-04-01T03:38:18;7.48;93.48
72106;SHT30;59975;47.646;18.318;2023-04-01T03:40:44;7.42;93.40
72106;SHT30;59975;47.646;18.318;2023-04-01T03:43:10;7.45;93.27
72106;SHT30;59975;47.646;18.318;2023-04-01T03:45:43;7.44;93.34
72106;SHT30;59975;47.646;18.318;2023-04-01T03:48:09;7.42;93.64
72106;SHT30;59975;47.646;18.318;2023-04-01T03:50:35;7.51;93.70
72106;SHT30;59975;47.646;18.318;2023-04-01T03:53:00;7.55;93.76
72106;SHT30;59975;47.646;18.318;2023-04-01T03:55:26;7.58;93.79
72106;SHT30;59975;47.646;18.318;2023-04-01T03:57:51;7.55;93.92
72106;SHT30;59975;47.646;18.318;2023-04-01T04:00:17;7.62;94.10
72106;SHT30;59975;47.646;18.318;2023-04-01T04:02:44;7.69;94.29
72106;SHT30;59975;47.646;18.318;2023-04-01T04:05:10;7.76;94.42
72106;SHT30;59975;47.646;18.318;2023-04-01T04:07:43;7.75;94.17
72106;SHT30;59975;47.646;18.318;2023-04-01T04:10:09;7.82;94.14
72106;SHT30;59975;47.646;18.318;2023-04-01T04:12:35;7.69;93.96
72106;SHT30;59975;47.646;18.318;2023-04-01T04:15:01;7.78;93.39
72106;SHT30;59975;47.646;18.318;2023-04-01T04:17:26;7.76;93.42
72106;SHT30;59975;47.646;18.318;2023-04-01T04:19:52;7.65;93.29
72106;SHT30;59975;47.646;18.318;2023-04-01T04:22:17;7.61;93.42
72106;SHT30;59975;47.646;18.318;2023-04-01T04:24:43;7.58;93.19
72106;SHT30;59975;47.646;18.318;2023-04-01T04:27:08;7.55;93.22
72106;SHT30;59975;47.646;18.318;2023-04-01T04:29:34;7.44;93.57
72106;SHT30;59975;47.646;18.318;2023-04-01T04:31:59;7.45;93.68
72106;SHT30;59975;47.646;18.318;2023-04-01T04:34:25;7.48;93.64
72106;SHT30;59975;47.646;18.318;2023-04-01T04:36:50;7.42;93.64
72106;SHT30;59975;47.646;18.318;2023-04-01T04:39:16;7.35;93.71
72106;SHT30;59975;47.646;18.318;2023-04-01T04:41:41;7.34;93.64
72106;SHT30;59975;47.646;18.318;2023-04-01T04:44:07;7.34;93.67
72106;SHT30;59975;47.646;18.318;2023-04-01T04:46:33;7.31;93.66
72106;SHT30;59975;47.646;18.318;2023-04-01T04:48:58;7.42;93.55
72106;SHT30;59975;47.646;18.318;2023-04-01T04:51:24;7.47;93.36
72106;SHT30;59975;47.646;18.318;2023-04-01T04:53:50;7.56;93.33
72106;SHT30;59975;47.646;18.318;2023-04-01T04:56:20;7.58;93.03
72106;SHT30;59975;47.646;18.318;2023-04-01T04:58:46;7.65;93.07
72106;SHT30;59975;47.646;18.318;2023-04-01T05:01:14;7.72;92.53
72106;SHT30;59975;47.646;18.318;2023-04-01T05:03:40;7.82;92.77
72106;SHT30;59975;47.646;18.318;2023-04-01T05:06:06;7.90;92.46
72106;SHT30;59975;47.646;18.318;2023-04-01T05:08:32;7.90;92.27
72106;SHT30;59975;47.646;18.318;2023-04-01T05:11:00;7.99;92.55
72106;SHT30;59975;47.646;18.318;2023-04-01T05:13:26;8.07;92.27
72106;SHT30;59975;47.646;18.318;2023-04-01T05:15:51;8.23;91.86
72106;SHT30;59975;47.646;18.318;2023-04-01T05:18:17;8.37;92.20
72106;SHT30;59975;47.646;18.318;2023-04-01T05:20:51;8.61;92.05
72106;SHT30;59975;47.646;18.318;2023-04-01T05:23:17;8.68;91.34
72106;SHT30;59975;47.646;18.318;2023-04-01T05:25:43;8.79;91.09
72106;SHT30;59975;47.646;18.318;2023-04-01T05:28:10;8.89;90.53
72106;SHT30;59975;47.646;18.318;2023-04-01T05:30:36;8.98;90.42
72106;SHT30;59975;47.646;18.318;2023-04-01T05:33:02;9.04;90.15
72106;SHT30;59975;47.646;18.318;2023-04-01T05:35:27;9.08;89.55
72106;SHT30;59975;47.646;18.318;2023-04-01T05:37:53;9.14;89.75
72106;SHT30;59975;47.646;18.318;2023-04-01T05:40:19;9.19;89.52
72106;SHT30;59975;47.646;18.318;2023-04-01T05:42:44;9.09;89.59
72106;SHT30;59975;47.646;18.318;2023-04-01T05:45:10;9.22;89.32
72106;SHT30;59975;47.646;18.318;2023-04-01T05:47:35;9.23;89.55
72106;SHT30;59975;47.646;18.318;2023-04-01T05:50:01;9.50;89.20
72106;SHT30;59975;47.646;18.318;2023-04-01T05:52:26;9.70;89.01
72106;SHT30;59975;47.646;18.318;2023-04-01T05:54:52;9.80;88.96
72106;SHT30;59975;47.646;18.318;2023-04-01T05:57:17;9.89;88.58
72106;SHT30;59975;47.646;18.318;2023-04-01T05:59:43;9.89;88.34
72106;SHT30;59975;47.646;18.318;2023-04-01T06:02:09;9.95;88.31
72106;SHT30;59975;47.646;18.318;2023-04-01T06:04:38;9.98;88.80
72106;SHT30;59975;47.646;18.318;2023-04-01T06:07:15;10.05;87.84
72106;SHT30;59975;47.646;18.318;2023-04-01T06:09:41;10.07;87.92
72106;SHT30;59975;47.646;18.318;2023-04-01T06:20:18;10.03;87.00
72106;SHT30;59975;47.646;18.318;2023-04-01T06:25:27;10.10;86.82
72106;SHT30;59975;47.646;18.318;2023-04-01T06:30:43;10.15;85.50
72106;SHT30;59975;47.646;18.318;2023-04-01T06:44:20;10.85;83.76
72106;SHT30;59975;47.646;18.318;2023-04-01T06:50:14;10.93;81.55
72106;SHT30;59975;47.646;18.318;2023-04-01T06:52:50;11.39;79.71
72106;SHT30;59975;47.646;18.318;2023-04-01T06:55:38;11.64;77.84
72106;SHT30;59975;47.646;18.318;2023-04-01T06:58:13;11.67;79.45
72106;SHT30;59975;47.646;18.318;2023-04-01T07:00:43;11.77;77.63
72106;SHT30;59975;47.646;18.318;2023-04-01T07:05:43;11.81;76.73
72106;SHT30;59975;47.646;18.318;2023-04-01T07:08:13;11.81;78.46
72106;SHT30;59975;47.646;18.318;2023-04-01T07:10:54;11.80;77.58
72106;SHT30;59975;47.646;18.318;2023-04-01T07:16:17;11.81;78.02
72106;SHT30;59975;47.646;18.318;2023-04-01T07:18:50;11.78;77.58
72106;SHT30;59975;47.646;18.318;2023-04-01T07:21:44;11.95;77.16
72106;SHT30;59975;47.646;18.318;2023-04-01T07:24:24;11.88;75.52
72106;SHT30;59975;47.646;18.318;2023-04-01T07:26:54;11.61;75.58
72106;SHT30;59975;47.646;18.318;2023-04-01T07:29:20;11.57;75.09
72106;SHT30;59975;47.646;18.318;2023-04-01T07:34:27;11.71;74.63
72106;SHT30;59975;47.646;18.318;2023-04-01T07:37:46;11.74;74.14
72106;SHT30;59975;47.646;18.318;2023-04-01T07:46:01;11.97;72.51
72106;SHT30;59975;47.646;18.318;2023-04-01T07:49:14;11.91;72.66
72106;SHT30;59975;47.646;18.318;2023-04-01T07:51:39;12.08;73.62
72106;SHT30;59975;47.646;18.318;2023-04-01T07:54:17;11.95;73.58
72106;SHT30;59975;47.646;18.318;2023-04-01T08:04:48;12.15;74.88
72106;SHT30;59975;47.646;18.318;2023-04-01T08:07:49;12.02;71.07
72106;SHT30;59975;47.646;18.318;2023-04-01T08:10:25;11.95;71.22
72106;SHT30;59975;47.646;18.318;2023-04-01T08:16:08;11.85;72.20
72106;SHT30;59975;47.646;18.318;2023-04-01T08:21:35;12.01;70.79
72106;SHT30;59975;47.646;18.318;2023-04-01T08:26:51;12.14;69.56
72106;SHT30;59975;47.646;18.318;2023-04-01T08:29:22;12.12;70.81
72106;SHT30;59975;47.646;18.318;2023-04-01T08:37:02;12.77;68.15
72106;SHT30;59975;47.646;18.318;2023-04-01T08:39:32;12.80;69.68
72106;SHT30;59975;47.646;18.318;2023-04-01T08:42:15;13.02;68.95
72106;SHT30;59975;47.646;18.318;2023-04-01T09:02:22;13.34;66.10
72106;SHT30;59975;47.646;18.318;2023-04-01T09:15:47;13.70;65.43
72106;SHT30;59975;47.646;18.318;2023-04-01T09:29:42;13.99;65.21
72106;SHT30;59975;47.646;18.318;2023-04-01T09:35:10;14.05;61.67
72106;SHT30;59975;47.646;18.318;2023-04-01T09:37:52;14.16;61.59
72106;SHT30;59975;47.646;18.318;2023-04-01T09:40:48;14.21;62.93
72106;SHT30;59975;47.646;18.318;2023-04-01T09:51:26;14.02;59.98
72106;SHT30;59975;47.646;18.318;2023-04-01T10:00:26;14.39;60.82
72106;SHT30;59975;47.646;18.318;2023-04-01T10:05:24;14.49;61.89
72106;SHT30;59975;47.646;18.318;2023-04-01T10:08:19;14.42;60.96
72106;SHT30;59975;47.646;18.318;2023-04-01T10:11:21;14.63;59.89
72106;SHT30;59975;47.646;18.318;2023-04-01T10:14:06;14.66;58.80
72106;SHT30;59975;47.646;18.318;2023-04-01T11:09:58;14.62;57.52
72106;SHT30;59975;47.646;18.318;2023-04-01T11:18:29;15.15;56.71
72106;SHT30;59975;47.646;18.318;2023-04-01T11:36:14;14.36;59.31
72106;SHT30;59975;47.646;18.318;2023-04-01T11:38:55;14.16;60.08
72106;SHT30;59975;47.646;18.318;2023-04-01T11:41:45;14.21;60.59
72106;SHT30;59975;47.646;18.318;2023-04-01T11:44:22;14.28;59.79
72106;SHT30;59975;47.646;18.318;2023-04-01T11:49:46;14.25;58.86
72106;SHT30;59975;47.646;18.318;2023-04-01T12:00:23;14.96;57.95
72106;SHT30;59975;47.646;18.318;2023-04-01T12:08:36;14.80;58.93
72106;SHT30;59975;47.646;18.318;2023-04-01T12:16:44;14.66;59.83
72106;SHT30;59975;47.646;18.318;2023-04-01T12:27:40;14.21;62.05
72106;SHT30;59975;47.646;18.318;2023-04-01T12:36:10;14.44;61.08
72106;SHT30;59975;47.646;18.318;2023-04-01T12:39:06;14.55;60.28
72106;SHT30;59975;47.646;18.318;2023-04-01T12:42:16;14.60;58.56
72106;SHT30;59975;47.646;18.318;2023-04-01T12:55:45;15.10;54.35
72106;SHT30;59975;47.646;18.318;2023-04-01T13:04:05;14.81;55.45
72106;SHT30;59975;47.646;18.318;2023-04-01T13:09:36;14.59;57.36
72106;SHT30;59975;47.646;18.318;2023-04-01T13:17:52;14.76;53.99
72106;SHT30;59975;47.646;18.318;2023-04-01T13:20:28;14.90;53.50
72106;SHT30;59975;47.646;18.318;2023-04-01T13:29:16;15.25;55.36
72106;SHT30;59975;47.646;18.318;2023-04-01T13:39:46;15.42;55.13
72106;SHT30;59975;47.646;18.318;2023-04-01T13:42:31;15.68;54.81
72106;SHT30;59975;47.646;18.318;2023-04-01T13:45:00;15.65;53.09
72106;SHT30;59975;47.646;18.318;2023-04-01T13:52:45;15.70;52.20
72106;SHT30;59975;47.646;18.318;2023-04-01T13:58:44;15.72;53.25
72106;SHT30;59975;47.646;18.318;2023-04-01T14:01:12;15.37;53.62
72106;SHT30;59975;47.646;18.318;2023-04-01T14:12:00;15.37;54.28
72106;SHT30;59975;47.646;18.318;2023-04-01T14:14:49;15.45;54.52
72106;SHT30;59975;47.646;18.318;2023-04-01T14:20:53;15.49;51.28
72106;SHT30;59975;47.646;18.318;2023-04-01T14:35:05;15.44;50.64
72106;SHT30;59975;47.646;18.318;2023-04-01T14:51:34;15.90;51.07
72106;SHT30;59975;47.646;18.318;2023-04-01T14:54:15;15.96;51.15
72106;SHT30;59975;47.646;18.318;2023-04-01T14:57:09;15.86;50.56
72106;SHT30;59975;47.646;18.318;2023-04-01T14:59:39;15.68;50.49
72106;SHT30;59975;47.646;18.318;2023-04-01T15:10:34;15.63;50.52
72106;SHT30;59975;47.646;18.318;2023-04-01T15:24:25;16.09;49.60
72106;SHT30;59975;47.646;18.318;2023-04-01T15:37:56;15.59;50.12
72106;SHT30;59975;47.646;18.318;2023-04-01T15:40:30;15.57;49.56
72106;SHT30;59975;47.646;18.318;2023-04-01T15:43:03;15.45;49.78
72106;SHT30;59975;47.646;18.318;2023-04-01T15:45:36;15.37;49.42
72106;SHT30;59975;47.646;18.318;2023-04-01T15:48:20;15.23;50.07
72106;SHT30;59975;47.646;18.318;2023-04-01T15:56:41;15.06;50.79
72106;SHT30;59975;47.646;18.318;2023-04-01T15:59:38;15.04;51.25
72106;SHT30;59975;47.646;18.318;2023-04-01T16:07:51;14.91;51.33
72106;SHT30;59975;47.646;18.318;2023-04-01T16:21:24;14.94;50.24
72106;SHT30;59975;47.646;18.318;2023-04-01T16:23:59;15.06;50.39
72106;SHT30;59975;47.646;18.318;2023-04-01T16:26:38;15.21;49.46
72106;SHT30;59975;47.646;18.318;2023-04-01T16:31:51;15.27;48.74
72106;SHT30;59975;47.646;18.318;2023-04-01T16:34:30;15.18;49.00
72106;SHT30;59975;47.646;18.318;2023-04-01T16:37:21;15.31;49.16
72106;SHT30;59975;47.646;18.318;2023-04-01T16:40:03;15.01;50.10
72106;SHT30;59975;47.646;18.318;2023-04-01T16:45:29;14.44;52.64
72106;SHT30;59975;47.646;18.318;2023-04-01T16:48:17;14.22;53.13
72106;SHT30;59975;47.646;18.318;2023-04-01T16:50:59;14.02;53.43
72106;SHT30;59975;47.646;18.318;2023-04-01T16:53:42;13.77;54.10
72106;SHT30;59975;47.646;18.318;2023-04-01T16:59:06;13.44;55.51
72106;SHT30;59975;47.646;18.318;2023-04-01T17:04:24;13.23;55.86
72106;SHT30;59975;47.646;18.318;2023-04-01T17:20:32;12.35;59.86
72106;SHT30;59975;47.646;18.318;2023-04-01T17:23:18;12.24;60.45
72106;SHT30;59975;47.646;18.318;2023-04-01T17:48:01;11.82;62.16
72106;SHT30;59975;47.646;18.318;2023-04-01T17:53:45;11.85;61.98
72106;SHT30;59975;47.646;18.318;2023-04-01T17:56:28;11.77;62.33
72106;SHT30;59975;47.646;18.318;2023-04-01T18:07:37;11.27;64.59
72106;SHT30;59975;47.646;18.318;2023-04-01T18:10:23;11.19;64.99
72106;SHT30;59975;47.646;18.318;2023-04-01T18:18:46;10.73;68.42
72106;SHT30;59975;47.646;18.318;2023-04-01T18:24:05;10.41;67.98
72106;SHT30;59975;47.646;18.318;2023-04-01T18:26:37;10.33;68.26
72106;SHT30;59975;47.646;18.318;2023-04-01T18:29:19;10.42;68.10
72106;SHT30;59975;47.646;18.318;2023-04-01T18:31:54;10.68;66.41
72106;SHT30;59975;47.646;18.318;2023-04-01T18:34:49;10.66;66.33
72106;SHT30;59975;47.646;18.318;2023-04-01T18:39:56;10.37;67.53
72106;SHT30;59975;47.646;18.318;2023-04-01T18:48:00;10.01;69.92
72106;SHT30;59975;47.646;18.318;2023-04-01T18:53:24;9.69;72.29
72106;SHT30;59975;47.646;18.318;2023-04-01T19:02:30;9.46;77.72
72106;SHT30;59975;47.646;18.318;2023-04-01T19:05:10;9.60;74.44
72106;SHT30;59975;47.646;18.318;2023-04-01T19:10:17;10.00;71.14
72106;SHT30;59975;47.646;18.318;2023-04-01T19:15:38;10.28;70.48
72106;SHT30;59975;47.646;18.318;2023-04-01T19:18:34;10.35;70.70
72106;SHT30;59975;47.646;18.318;2023-04-01T19:21:08;10.38;71.12
72106;SHT30;59975;47.646;18.318;2023-04-01T19:40:44;10.47;70.56
72106;SHT30;59975;47.646;18.318;2023-04-01T19:51:52;10.40;71.67
72106;SHT30;59975;47.646;18.318;2023-04-01T19:56:46;10.38;71.16
72106;SHT30;59975;47.646;18.318;2023-04-01T20:04:55;10.27;71.95
72106;SHT30;59975;47.646;18.318;2023-04-01T20:07:36;10.25;71.98
72106;SHT30;59975;47.646;18.318;2023-04-01T20:13:28;10.38;72.76
72106;SHT30;59975;47.646;18.318;2023-04-01T20:16:01;10.41;72.31
72106;SHT30;59975;47.646;18.318;2023-04-01T20:18:50;10.48;72.07
72106;SHT30;59975;47.646;18.318;2023-04-01T20:21:26;10.55;71.72
72106;SHT30;59975;47.646;18.318;2023-04-01T20:24:01;10.61;71.18
72106;SHT30;59975;47.646;18.318;2023-04-01T20:26:34;10.57;71.39
72106;SHT30;59975;47.646;18.318;2023-04-01T20:40:23;10.30;72.76
72106;SHT30;59975;47.646;18.318;2023-04-01T20:43:20;10.17;73.29
72106;SHT30;59975;47.646;18.318;2023-04-01T20:46:08;10.15;73.61
72106;SHT30;59975;47.646;18.318;2023-04-01T20:51:39;9.79;74.96
72106;SHT30;59975;47.646;18.318;2023-04-01T20:57:15;9.76;75.39
72106;SHT30;59975;47.646;18.318;2023-04-01T21:00:19;9.76;75.21
72106;SHT30;59975;47.646;18.318;2023-04-01T21:11:20;9.56;76.01
72106;SHT30;59975;47.646;18.318;2023-04-01T21:28:10;9.33;77.13
72106;SHT30;59975;47.646;18.318;2023-04-01T21:42:23;9.50;77.08
72106;SHT30;59975;47.646;18.318;2023-04-01T21:44:35;9.53;76.86
72106;SHT30;59975;47.646;18.318;2023-04-01T21:47:19;9.60;76.72
72106;SHT30;59975;47.646;18.318;2023-04-01T21:52:37;9.73;76.37
72106;SHT30;59975;47.646;18.318;2023-04-01T22:01:35;9.82;76.53
72106;SHT30;59975;47.646;18.318;2023-04-01T22:09:52;9.62;77.70
72106;SHT30;59975;47.646;18.318;2023-04-01T22:12:35;9.57;77.77
72106;SHT30;59975;47.646;18.318;2023-04-01T22:17:58;9.59;78.07
72106;SHT30;59975;47.646;18.318;2023-04-01T22:20:59;9.63;78.20
72106;SHT30;59975;47.646;18.318;2023-04-01T22:23:29;9.57;78.48
72106;SHT30;59975;47.646;18.318;2023-04-01T22:31:45;9.52;79.57
72106;SHT30;59975;47.646;18.318;2023-04-01T22:36:58;9.73;78.87
72106;SHT30;59975;47.646;18.318;2023-04-01T22:50:19;9.82;78.55
72106;SHT30;59975;47.646;18.318;2023-04-01T22:52:47;9.80;78.73
72106;SHT30;59975;47.646;18.318;2023-04-01T22:55:18;9.77;78.64
72106;SHT30;59975;47.646;18.318;2023-04-01T22:58:11;9.77;78.53
72106;SHT30;59975;47.646;18.318;2023-04-01T23:00:49;9.72;78.86
72106;SHT30;59975;47.646;18.318;2023-04-01T23:03:28;9.63;79.21
72106;SHT30;59975;47.646;18.318;2023-04-01T23:06:02;9.62;79.46
72106;SHT30;59975;47.646;18.318;2023-04-01T23:11:23;9.53;79.88
72106;SHT30;59975;47.646;18.318;2023-04-01T23:13:57;9.54;79.77
72106;SHT30;59975;47.646;18.318;2023-04-01T23:16:34;9.60;79.55
72106;SHT30;59975;47.646;18.318;2023-04-01T23:19:30;9.70;79.19
72106;SHT30;59975;47.646;18.318;2023-04-01T23:28:29;9.69;79.31
72106;SHT30;59975;47.646;18.318;2023-04-01T23:30:54;9.66;79.15
72106;SHT30;59975;47.646;18.318;2023-04-01T23:33:21;9.66;79.17
72106;SHT30;59975;47.646;18.318;2023-04-01T23:36:02;9.59;79.31
72106;SHT30;59975;47.646;18.318;2023-04-01T23:38:41;9.62;79.33
72106;SHT30;59975;47.646;18.318;2023-04-01T23:41:16;9.62;79.45
72106;SHT30;59975;47.646;18.318;2023-04-01T23:43:43;9.64;79.06
72106;SHT30;59975;47.646;18.318;2023-04-01T23:46:11;9.66;79.02
72106;SHT30;59975;47.646;18.318;2023-04-01T23:48:38;9.70;78.74
72106;SHT30;59975;47.646;18.318;2023-04-01T23:51:12;9.67;78.99
72106;SHT30;59975;47.646;18.318;2023-04-01T23:53:44;9.74;78.59
72106;SHT30;59975;47.646;18.318;2023-04-01T23:56:10;9.76;78.54
72106;SHT30;59975;47.646;18.318;2023-04-01T23:58:49;9.77;78.55
